createdAt,value
2023-02-17T00:01:36.382Z,63.37
2023-02-17T00:04:04.399Z,64.17
2023-02-17T00:06:32.828Z,61.60
2023-02-17T00:09:02.430Z,59.93
2023-02-17T00:11:30.623Z,59.73
2023-02-17T00:13:58.596Z,61.43
2023-02-17T00:16:28.391Z,61.83
2023-02-17T00:18:58.634Z,61.30
2023-02-17T00:21:29.308Z,62.10
2023-02-17T00:23:59.356Z,59.80
2023-02-17T00:26:28.948Z,62.47
2023-02-17T00:28:56.934Z,58.43
2023-02-17T00:31:25.194Z,59.73
2023-02-17T00:33:57.981Z,58.17
2023-02-17T00:36:27.362Z,56.93
2023-02-17T00:38:57.385Z,56.67
2023-02-17T00:41:26.647Z,55.90
2023-02-17T00:43:55.924Z,60.23
2023-02-17T00:46:24.458Z,62.90
2023-02-17T00:48:52.519Z,60.03
2023-02-17T00:51:20.723Z,58.40
2023-02-17T00:53:48.667Z,68.17
2023-02-17T00:56:17.077Z,58.93
2023-02-17T00:58:46.224Z,58.20
2023-02-17T01:01:15.602Z,57.17
2023-02-17T01:03:43.701Z,55.50
2023-02-17T01:06:20.383Z,58.53
2023-02-17T01:08:48.306Z,56.70
2023-02-17T01:11:18.818Z,56.00
2023-02-17T01:13:46.822Z,59.43
2023-02-17T01:16:21.345Z,60.67
2023-02-17T01:18:50.000Z,60.07
2023-02-17T01:21:18.994Z,58.70
2023-02-17T01:23:47.072Z,61.23
2023-02-17T01:26:15.787Z,59.87
2023-02-17T01:28:43.789Z,60.00
2023-02-17T01:31:12.606Z,58.90
2023-02-17T01:33:43.032Z,56.60
2023-02-17T01:36:14.036Z,55.60
2023-02-17T01:38:42.508Z,56.10
2023-02-17T01:41:10.977Z,53.90
2023-02-17T01:43:39.014Z,56.07
2023-02-17T01:46:09.363Z,57.10
2023-02-17T01:48:44.323Z,56.83
2023-02-17T01:51:17.648Z,57.00
2023-02-17T01:53:51.061Z,58.67
2023-02-17T01:56:19.843Z,59.60
2023-02-17T01:58:54.754Z,58.17
2023-02-17T02:01:23.344Z,56.23
2023-02-17T02:03:53.446Z,53.40
2023-02-17T02:06:26.651Z,50.23
2023-02-17T02:08:57.474Z,52.90
2023-02-17T02:11:25.410Z,52.83
2023-02-17T02:13:53.445Z,52.40
2023-02-17T02:16:26.107Z,53.30
2023-02-17T02:19:04.435Z,54.63
2023-02-17T02:21:52.438Z,51.97
2023-02-17T02:24:43.052Z,52.23
2023-02-17T02:27:46.488Z,52.40
2023-02-17T02:30:45.815Z,54.07
2023-02-17T02:33:25.739Z,51.73
2023-02-17T02:35:59.937Z,52.50
2023-02-17T02:38:33.263Z,52.07
2023-02-17T02:41:08.368Z,53.67
2023-02-17T02:43:36.761Z,51.07
2023-02-17T02:46:05.003Z,52.03
2023-02-17T02:48:34.759Z,50.97
2023-02-17T02:51:33.218Z,50.30
2023-02-17T02:54:20.876Z,51.03
2023-02-17T02:57:02.278Z,50.87
2023-02-17T02:59:41.545Z,48.97
2023-02-17T03:02:17.571Z,49.97
2023-02-17T03:04:53.961Z,50.23
2023-02-17T03:07:27.549Z,48.97
2023-02-17T03:09:58.149Z,50.20
2023-02-17T03:12:27.541Z,50.60
2023-02-17T03:15:00.653Z,52.93
2023-02-17T03:17:32.002Z,50.87
2023-02-17T03:20:03.480Z,51.60
2023-02-17T03:22:34.619Z,50.10
2023-02-17T03:25:04.133Z,50.00
2023-02-17T03:27:32.029Z,48.13
2023-02-17T03:29:59.971Z,47.83
2023-02-17T03:32:28.099Z,49.43
2023-02-17T03:34:55.993Z,47.27
2023-02-17T03:37:25.312Z,48.47
2023-02-17T03:39:53.224Z,46.53
2023-02-17T03:42:21.458Z,47.63
2023-02-17T03:44:49.402Z,48.67
2023-02-17T03:47:17.352Z,51.27
2023-02-17T03:49:45.219Z,48.93
2023-02-17T03:52:13.165Z,46.67
2023-02-17T03:54:42.431Z,46.13
2023-02-17T03:57:10.454Z,48.20
2023-02-17T03:59:38.390Z,48.43
2023-02-17T04:02:06.347Z,47.67
2023-02-17T04:04:34.285Z,47.87
2023-02-17T04:07:02.177Z,49.23
2023-02-17T04:09:30.139Z,46.10
2023-02-17T04:11:59.400Z,48.00
2023-02-17T04:14:27.314Z,45.63
2023-02-17T04:16:55.235Z,46.23
2023-02-17T04:19:23.105Z,46.03
2023-02-17T04:21:51.013Z,46.90
2023-02-17T04:24:18.949Z,47.77
2023-02-17T04:26:46.851Z,48.17
2023-02-17T04:29:16.166Z,48.10
2023-02-17T04:31:44.306Z,46.80
2023-02-17T04:34:12.325Z,47.27
2023-02-17T04:36:40.271Z,47.80
2023-02-17T04:39:08.238Z,48.93
2023-02-17T04:41:36.156Z,52.00
2023-02-17T04:44:04.077Z,47.90
2023-02-17T04:46:33.377Z,46.10
2023-02-17T04:49:01.290Z,47.93
2023-02-17T04:51:29.204Z,51.43
2023-02-17T04:53:57.103Z,49.07
2023-02-17T04:56:24.985Z,48.23
2023-02-17T04:58:52.899Z,48.43
2023-02-17T05:01:20.862Z,48.40
2023-02-17T05:03:50.093Z,49.53
2023-02-17T05:06:18.002Z,48.20
2023-02-17T05:08:48.006Z,48.10
2023-02-17T05:11:15.917Z,44.93
2023-02-17T05:13:43.876Z,44.83
2023-02-17T05:16:11.862Z,46.13
2023-02-17T05:18:39.812Z,48.73
2023-02-17T05:21:09.063Z,47.90
2023-02-17T05:23:41.213Z,48.40
2023-02-17T05:26:09.895Z,46.63
2023-02-17T05:28:38.717Z,47.10
2023-02-17T05:31:06.889Z,47.50
2023-02-17T05:33:34.877Z,46.47
2023-02-17T05:36:04.673Z,45.73
2023-02-17T05:38:34.265Z,44.97
2023-02-17T05:41:02.369Z,46.27
2023-02-17T05:43:30.403Z,46.67
2023-02-17T05:46:02.048Z,48.40
2023-02-17T05:48:30.281Z,47.33
2023-02-17T05:50:58.239Z,51.10
2023-02-17T05:53:26.177Z,52.10
2023-02-17T05:55:55.678Z,51.27
2023-02-17T05:58:23.668Z,49.33
2023-02-17T06:00:51.664Z,52.20
2023-02-17T06:03:19.648Z,49.13
2023-02-17T06:05:48.055Z,48.83
2023-02-17T06:08:15.943Z,50.57
2023-02-17T06:10:44.305Z,49.57
2023-02-17T06:13:13.616Z,50.97
2023-02-17T06:15:42.367Z,50.90
2023-02-17T06:18:10.263Z,50.60
2023-02-17T06:20:38.301Z,51.00
2023-02-17T06:23:06.382Z,52.03
2023-02-17T06:25:34.429Z,50.43
2023-02-17T06:28:02.371Z,48.57
2023-02-17T06:30:31.970Z,48.90
2023-02-17T06:33:00.232Z,51.72
2023-02-17T06:35:28.345Z,57.45
2023-02-17T06:37:56.412Z,55.57
2023-02-17T06:40:24.632Z,55.03
2023-02-17T06:42:52.774Z,54.93
2023-02-17T06:45:20.903Z,54.13
2023-02-17T06:47:50.337Z,51.33
2023-02-17T06:50:18.403Z,51.00
2023-02-17T06:52:46.465Z,53.00
2023-02-17T06:55:14.519Z,53.17
2023-02-17T06:57:42.733Z,58.70
2023-02-17T07:00:11.425Z,55.07
2023-02-17T07:02:39.603Z,55.33
2023-02-17T07:05:09.809Z,52.60
2023-02-17T07:07:37.917Z,53.90
2023-02-17T07:10:07.385Z,52.83
2023-02-17T07:12:35.442Z,49.50
2023-02-17T07:15:03.604Z,53.67
2023-02-17T07:17:32.770Z,54.00
2023-02-17T07:20:00.784Z,55.40
2023-02-17T07:22:30.287Z,50.13
2023-02-17T07:24:58.169Z,53.03
2023-02-17T07:27:26.083Z,51.47
2023-02-17T07:29:53.989Z,50.30
2023-02-17T07:32:22.257Z,50.17
2023-02-17T07:34:50.468Z,50.13
2023-02-17T07:37:20.096Z,48.63
2023-02-17T07:39:49.851Z,47.90
2023-02-17T07:42:17.964Z,49.53
2023-02-17T07:44:46.009Z,48.53
2023-02-17T07:47:14.088Z,46.57
2023-02-17T07:49:42.149Z,43.73
2023-02-17T07:52:10.195Z,45.80
2023-02-17T07:54:38.472Z,45.97
2023-02-17T07:57:07.965Z,43.77
2023-02-17T07:59:36.073Z,43.73
2023-02-17T08:02:04.635Z,45.03
2023-02-17T08:04:33.725Z,45.50
2023-02-17T08:07:01.990Z,42.83
2023-02-17T08:09:47.398Z,43.00
2023-02-17T08:12:36.351Z,42.50
2023-02-17T08:15:04.810Z,41.97
2023-02-17T08:17:32.828Z,40.20
2023-02-17T08:20:08.080Z,40.27
2023-02-17T08:22:36.546Z,41.43
2023-02-17T08:25:06.213Z,42.90
2023-02-17T08:27:35.831Z,39.17
2023-02-17T08:30:05.753Z,39.97
2023-02-17T08:32:33.926Z,40.40
2023-02-17T08:35:02.087Z,41.30
2023-02-17T08:37:31.873Z,38.77
2023-02-17T08:40:00.252Z,41.23
2023-02-17T08:42:28.360Z,40.97
2023-02-17T08:44:57.820Z,42.63
2023-02-17T08:47:25.899Z,39.90
2023-02-17T08:49:53.971Z,39.53
2023-02-17T08:52:22.014Z,39.87
2023-02-17T08:54:52.535Z,40.10
2023-02-17T08:57:21.560Z,38.73
2023-02-17T08:59:50.757Z,37.83
2023-02-17T09:02:20.297Z,38.63
2023-02-17T09:04:48.500Z,40.73
2023-02-17T09:07:17.151Z,40.23
2023-02-17T09:09:45.511Z,41.27
2023-02-17T09:12:13.670Z,39.27
2023-02-17T09:14:41.962Z,40.40
2023-02-17T09:17:11.386Z,39.80
2023-02-17T09:19:41.389Z,39.53
2023-02-17T09:22:13.573Z,38.97
2023-02-17T09:24:46.251Z,41.03
2023-02-17T09:27:14.774Z,38.73
2023-02-17T09:29:42.879Z,38.73
2023-02-17T09:32:11.084Z,39.10
2023-02-17T09:34:41.905Z,37.00
2023-02-17T09:37:13.029Z,35.63
2023-02-17T09:39:41.233Z,35.13
2023-02-17T09:42:18.722Z,34.20
2023-02-17T09:44:52.245Z,35.60
2023-02-17T09:47:24.766Z,35.47
2023-02-17T09:49:58.410Z,34.10
2023-02-17T09:52:31.938Z,33.90
2023-02-17T09:55:06.024Z,33.93
2023-02-17T09:57:38.954Z,32.43
2023-02-17T10:00:12.019Z,31.93
2023-02-17T10:02:48.441Z,32.00
2023-02-17T10:05:22.999Z,30.13
2023-02-17T10:07:57.217Z,31.23
2023-02-17T10:10:32.658Z,30.87
2023-02-17T10:13:03.399Z,32.50
2023-02-17T10:15:37.192Z,32.27
2023-02-17T10:18:11.797Z,32.13
2023-02-17T10:20:43.984Z,31.00
2023-02-17T10:23:18.086Z,29.70
2023-02-17T10:26:10.568Z,31.57
2023-02-17T10:29:03.986Z,30.60
2023-02-17T10:31:46.034Z,28.83
2023-02-17T10:34:26.285Z,30.43
2023-02-17T10:37:01.406Z,29.50
2023-02-17T10:39:46.560Z,28.23
2023-02-17T10:42:22.082Z,29.50
2023-02-17T10:44:52.611Z,29.00
2023-02-17T10:47:23.739Z,28.30
2023-02-17T10:49:54.264Z,29.30
2023-02-17T10:52:27.372Z,26.93
2023-02-17T10:55:00.081Z,28.30
2023-02-17T10:57:34.111Z,28.90
2023-02-17T11:00:02.163Z,27.00
2023-02-17T11:02:37.952Z,26.83
2023-02-17T11:05:06.853Z,27.20
2023-02-17T11:07:40.040Z,25.47
2023-02-17T11:10:23.592Z,25.67
2023-02-17T11:12:52.231Z,26.30
2023-02-17T11:15:23.255Z,26.67
2023-02-17T11:17:52.318Z,25.70
2023-02-17T11:20:34.472Z,26.30
2023-02-17T11:23:25.302Z,28.90
2023-02-17T11:26:10.120Z,28.30
2023-02-17T11:28:38.512Z,28.70
2023-02-17T11:31:07.272Z,27.73
2023-02-17T11:33:37.748Z,28.00
2023-02-17T11:36:07.956Z,29.70
2023-02-17T11:38:47.878Z,29.90
2023-02-17T11:41:15.908Z,28.77
2023-02-17T11:43:53.455Z,28.67
2023-02-17T11:46:34.812Z,27.70
2023-02-17T11:49:41.420Z,28.20
2023-02-17T11:52:26.146Z,28.23
2023-02-17T11:55:09.047Z,28.37
2023-02-17T11:57:43.242Z,28.10
2023-02-17T12:00:18.703Z,27.80
2023-02-17T12:03:02.628Z,28.43
2023-02-17T12:05:41.587Z,28.53
2023-02-17T12:08:23.469Z,28.17
2023-02-17T12:11:07.548Z,27.20
2023-02-17T12:13:45.353Z,28.37
2023-02-17T12:16:25.097Z,28.50
2023-02-17T12:19:02.882Z,28.00
2023-02-17T12:21:45.924Z,28.73
2023-02-17T12:24:35.829Z,29.40
2023-02-17T12:27:22.429Z,30.33
2023-02-17T12:30:05.541Z,29.70
2023-02-17T12:32:43.215Z,30.87
2023-02-17T12:35:20.022Z,31.37
2023-02-17T12:37:54.206Z,32.57
2023-02-17T12:40:37.576Z,32.70
2023-02-17T12:43:21.766Z,32.13
2023-02-17T12:45:52.098Z,31.30
2023-02-17T12:48:27.204Z,31.47
2023-02-17T12:51:00.636Z,29.60
2023-02-17T12:53:43.276Z,31.10
2023-02-17T12:56:34.695Z,34.40
2023-02-17T12:59:14.212Z,33.33
2023-02-17T13:01:54.097Z,35.90
2023-02-17T13:04:26.274Z,36.83
2023-02-17T13:07:03.277Z,36.03
2023-02-17T13:09:35.368Z,33.17
2023-02-17T13:12:31.398Z,32.47
2023-02-17T13:15:05.067Z,35.40
2023-02-17T13:17:37.219Z,35.60
2023-02-17T13:20:27.909Z,35.40
2023-02-17T13:23:08.996Z,36.47
2023-02-17T13:25:38.278Z,36.10
2023-02-17T13:28:35.775Z,35.97
2023-02-17T13:31:15.171Z,36.97
2023-02-17T13:33:47.331Z,35.73
2023-02-17T13:36:20.902Z,36.30
2023-02-17T13:39:03.087Z,35.70
2023-02-17T13:41:36.018Z,33.53
2023-02-17T13:44:28.356Z,35.63
2023-02-17T13:47:01.056Z,34.00
2023-02-17T13:49:33.017Z,32.80
2023-02-17T13:52:13.018Z,33.33
2023-02-17T13:54:42.048Z,31.10
2023-02-17T13:57:24.494Z,31.50
2023-02-17T13:59:52.538Z,31.47
2023-02-17T14:02:35.544Z,32.37
2023-02-17T14:05:18.085Z,30.93
2023-02-17T14:07:48.285Z,30.77
2023-02-17T14:10:23.472Z,31.47
2023-02-17T14:12:52.918Z,31.73
2023-02-17T14:15:23.224Z,30.97
2023-02-17T14:17:52.812Z,29.60
2023-02-17T14:20:30.329Z,28.70
2023-02-17T14:23:06.734Z,29.10
2023-02-17T14:25:38.063Z,28.60
2023-02-17T14:28:18.218Z,27.90
2023-02-17T14:30:46.539Z,28.13
2023-02-17T14:33:23.617Z,28.27
2023-02-17T14:35:54.040Z,28.50
2023-02-17T14:38:24.227Z,27.97
2023-02-17T14:40:55.887Z,27.63
2023-02-17T14:43:24.698Z,28.27
2023-02-17T14:45:52.812Z,28.87
2023-02-17T14:48:22.397Z,28.90
2023-02-17T14:50:50.861Z,26.87
2023-02-17T14:53:26.421Z,26.93
2023-02-17T14:56:00.217Z,26.87
2023-02-17T14:58:29.936Z,26.83
2023-02-17T15:00:58.242Z,27.77
2023-02-17T15:03:27.813Z,27.00
2023-02-17T15:05:56.429Z,26.83
2023-02-17T15:08:32.761Z,26.47
2023-02-17T15:11:01.487Z,26.53
2023-02-17T15:13:31.728Z,26.03
2023-02-17T15:16:00.191Z,26.63
2023-02-17T15:18:29.717Z,26.10
2023-02-17T15:20:58.265Z,26.93
2023-02-17T15:23:29.222Z,27.20
2023-02-17T15:25:57.425Z,26.37
2023-02-17T15:28:25.543Z,26.50
2023-02-17T15:30:56.857Z,24.80
2023-02-17T15:33:25.866Z,25.87
2023-02-17T15:35:56.162Z,26.30
2023-02-17T15:38:27.191Z,27.20
2023-02-17T15:40:58.394Z,28.77
2023-02-17T15:43:32.646Z,26.67
2023-02-17T15:46:00.762Z,51.30
2023-02-17T15:48:31.935Z,27.43
2023-02-17T15:51:01.357Z,27.20
2023-02-17T15:53:32.478Z,27.63
2023-02-17T15:56:01.699Z,28.10
2023-02-17T15:58:30.409Z,28.67
2023-02-17T16:01:03.882Z,28.20
2023-02-17T16:03:32.062Z,28.27
2023-02-17T16:06:01.565Z,28.73
2023-02-17T16:08:29.602Z,29.90
2023-02-17T16:10:57.660Z,29.27
2023-02-17T16:13:28.138Z,29.20
2023-02-17T16:15:59.164Z,30.77
2023-02-17T16:18:27.212Z,29.37
2023-02-17T16:20:55.187Z,29.00
2023-02-17T16:23:24.595Z,28.93
2023-02-17T16:25:52.797Z,32.40
2023-02-17T16:28:23.064Z,30.03
2023-02-17T16:30:51.750Z,30.40
2023-02-17T16:33:19.846Z,29.13
2023-02-17T16:35:47.946Z,29.87
2023-02-17T16:38:22.316Z,29.33
2023-02-17T16:40:54.805Z,30.87
2023-02-17T16:43:25.349Z,29.70
2023-02-17T16:45:56.003Z,30.63
2023-02-17T16:48:26.001Z,31.07
2023-02-17T16:50:54.340Z,32.90
2023-02-17T16:53:22.411Z,30.77
2023-02-17T16:55:53.513Z,31.30
2023-02-17T16:58:27.157Z,32.30
2023-02-17T17:00:57.641Z,31.60
2023-02-17T17:03:25.739Z,30.67
2023-02-17T17:05:54.508Z,31.00
2023-02-17T17:08:22.601Z,32.40
2023-02-17T17:10:52.026Z,31.80
2023-02-17T17:13:20.345Z,30.57
2023-02-17T17:15:48.627Z,30.60
2023-02-17T17:18:21.379Z,30.33
2023-02-17T17:20:49.895Z,31.47
2023-02-17T17:23:18.837Z,32.07
2023-02-17T17:25:48.548Z,32.50
2023-02-17T17:28:20.076Z,31.23
2023-02-17T17:30:48.124Z,31.27
2023-02-17T17:33:17.160Z,33.43
2023-02-17T17:35:45.297Z,32.70
2023-02-17T17:38:15.356Z,33.67
2023-02-17T17:40:49.163Z,63.00
2023-02-17T17:43:20.430Z,32.77
2023-02-17T17:45:48.761Z,33.23
2023-02-17T17:48:17.636Z,31.87
2023-02-17T17:50:49.278Z,33.70
2023-02-17T17:53:17.357Z,33.27
2023-02-17T17:55:45.429Z,34.97
2023-02-17T17:58:13.890Z,35.00
2023-02-17T18:00:43.307Z,36.67
2023-02-17T18:03:11.672Z,35.13
2023-02-17T18:05:39.930Z,35.50
2023-02-17T18:08:09.121Z,35.57
2023-02-17T18:10:39.662Z,35.50
2023-02-17T18:13:09.721Z,36.80
2023-02-17T18:15:38.005Z,35.87
2023-02-17T18:18:07.726Z,34.93
2023-02-17T18:20:35.927Z,35.97
2023-02-17T18:23:04.070Z,38.73
2023-02-17T18:25:32.441Z,62.27
2023-02-17T18:28:00.660Z,37.93
2023-02-17T18:30:29.011Z,39.13
2023-02-17T18:32:57.164Z,39.43
2023-02-17T18:35:26.708Z,39.07
2023-02-17T18:37:54.872Z,41.00
2023-02-17T18:40:23.463Z,40.93
2023-02-17T18:42:51.544Z,43.37
2023-02-17T18:45:19.944Z,41.40
2023-02-17T18:47:48.334Z,42.17
2023-02-17T18:50:17.315Z,45.70
2023-02-17T18:52:46.774Z,45.50
2023-02-17T18:55:15.355Z,46.33
2023-02-17T18:57:44.813Z,46.77
2023-02-17T19:00:16.674Z,44.00
2023-02-17T19:02:45.092Z,44.13
2023-02-17T19:05:13.525Z,70.00
2023-02-17T19:07:41.627Z,45.10
2023-02-17T19:10:12.081Z,44.40
2023-02-17T19:12:40.123Z,46.50
2023-02-17T19:15:08.920Z,46.37
2023-02-17T19:17:37.078Z,47.40
2023-02-17T19:20:05.478Z,51.00
2023-02-17T19:22:36.291Z,50.57
2023-02-17T19:25:05.797Z,50.53
2023-02-17T19:27:35.744Z,52.50
2023-02-17T19:30:04.478Z,52.80
2023-02-17T19:32:33.109Z,52.80
2023-02-17T19:35:01.704Z,52.60
2023-02-17T19:37:30.216Z,53.30
2023-02-17T19:39:58.965Z,54.43
2023-02-17T19:42:27.568Z,55.30
2023-02-17T19:44:57.442Z,57.00
2023-02-17T19:47:25.944Z,55.67
2023-02-17T19:49:54.338Z,53.77
2023-02-17T19:52:22.797Z,55.80
2023-02-17T19:54:51.361Z,54.83
2023-02-17T19:57:19.768Z,54.67
2023-02-17T19:59:48.068Z,58.87
2023-02-17T20:02:17.891Z,54.73
2023-02-17T20:04:46.343Z,54.30
2023-02-17T20:07:14.840Z,53.87
2023-02-17T20:09:43.295Z,55.27
2023-02-17T20:12:11.706Z,57.67
2023-02-17T20:14:40.571Z,57.83
2023-02-17T20:17:08.933Z,58.03
2023-02-17T20:19:39.905Z,63.60
2023-02-17T20:22:09.355Z,58.33
2023-02-17T20:24:40.820Z,59.83
2023-02-17T20:27:09.502Z,59.57
2023-02-17T20:29:37.760Z,60.03
2023-02-17T20:32:06.835Z,60.67
2023-02-17T20:34:39.197Z,58.70
2023-02-17T20:37:08.463Z,59.53
2023-02-17T20:39:38.172Z,58.33
2023-02-17T20:42:06.382Z,61.43
2023-02-17T20:44:34.924Z,61.50
2023-02-17T20:47:03.380Z,64.33
2023-02-17T20:49:31.387Z,64.07
2023-02-17T20:52:00.886Z,64.47
2023-02-17T20:54:28.965Z,63.53
2023-02-17T20:56:59.286Z,68.40
2023-02-17T20:59:27.501Z,63.43
2023-02-17T21:01:55.734Z,64.93
2023-02-17T21:04:23.949Z,67.20
2023-02-17T21:06:52.023Z,65.13
2023-02-17T21:09:21.408Z,64.10
2023-02-17T21:11:49.504Z,66.20
2023-02-17T21:14:17.558Z,66.43
2023-02-17T21:16:46.497Z,66.93
2023-02-17T21:19:14.700Z,74.75
2023-02-17T21:21:43.252Z,74.00
2023-02-17T21:24:11.392Z,70.00
2023-02-17T21:26:40.912Z,70.60
2023-02-17T21:29:08.991Z,72.83
2023-02-17T21:31:37.236Z,70.93
2023-02-17T21:34:05.754Z,70.70
2023-02-17T21:36:34.191Z,69.70
2023-02-17T21:39:04.246Z,68.23
2023-02-17T21:41:32.801Z,68.67
2023-02-17T21:44:19.591Z,72.30
2023-02-17T21:46:47.656Z,70.47
2023-02-17T21:49:16.088Z,73.73
2023-02-17T21:51:44.339Z,74.13
2023-02-17T21:54:12.700Z,73.60
2023-02-17T21:56:40.790Z,73.67
2023-02-17T21:59:10.192Z,76.17
2023-02-17T22:01:38.581Z,75.63
2023-02-17T22:04:07.130Z,77.27
2023-02-17T22:06:37.733Z,78.53
2023-02-17T22:09:07.387Z,75.40
2023-02-17T22:11:39.256Z,81.20
2023-02-17T22:14:12.979Z,73.37
2023-02-17T22:16:41.273Z,74.77
2023-02-17T22:19:13.641Z,72.50
2023-02-17T22:21:43.613Z,75.47
2023-02-17T22:24:11.986Z,77.73
2023-02-17T22:26:40.046Z,76.60
2023-02-17T22:29:08.165Z,72.53
2023-02-17T22:31:37.802Z,71.93
2023-02-17T22:34:09.713Z,77.10
2023-02-17T22:36:38.429Z,82.27
2023-02-17T22:39:08.907Z,79.50
2023-02-17T22:41:38.790Z,80.83
2023-02-17T22:44:07.618Z,74.53
2023-02-17T22:46:37.326Z,75.27
2023-02-17T22:49:05.590Z,74.10
2023-02-17T22:51:37.072Z,75.03
2023-02-17T22:54:06.317Z,71.93
2023-02-17T22:56:34.957Z,71.20
2023-02-17T22:59:04.375Z,74.20
2023-02-17T23:01:34.707Z,73.40
2023-02-17T23:04:05.109Z,73.73
2023-02-17T23:06:34.877Z,71.77
2023-02-17T23:09:04.412Z,70.70
2023-02-17T23:11:54.449Z,72.60
2023-02-17T23:14:28.522Z,70.63
2023-02-17T23:17:00.957Z,68.50
2023-02-17T23:19:30.971Z,66.40
2023-02-17T23:22:01.036Z,72.27
2023-02-17T23:24:29.210Z,68.53
2023-02-17T23:26:59.901Z,70.20
2023-02-17T23:29:28.511Z,69.83
2023-02-17T23:31:56.667Z,68.97
2023-02-17T23:34:24.814Z,68.53
2023-02-17T23:36:54.176Z,69.43
2023-02-17T23:39:22.240Z,67.13
2023-02-17T23:41:50.414Z,67.80
2023-02-17T23:44:19.045Z,69.23
2023-02-17T23:46:47.171Z,65.83
2023-02-17T23:49:17.498Z,66.37
2023-02-17T23:51:46.858Z,66.77
2023-02-17T23:54:16.754Z,66.43
2023-02-17T23:56:45.014Z,66.43
2023-02-17T23:59:13.270Z,63.57
